Main page
METAR-TAF:

METAR-TAF

Airports :

Damascus International Airport

Damascus, Syria

latitude: 33-25N, longitude: 036-31E, elevation: 608 m

Current weather observation

The report was made 32 minutes ago, at 11:00 UTC
Wind 8 kt from the West/Southwest
Temperature 35°C
Humidity 19%
Pressure 1008 hPa
Visibility 10 km or more
no clouds below 1500 m and no cumulonimbus

METAR: OSDI 151100Z 24008KT CAVOK 35/08 Q1008

Time: 14:32 (11:32 UTC)

Forecast

The report was made 6 hours and 32 minutes ago, at 05:00 UTC
Forecast valid from 15 at 06 UTC to 16 at 12 UTC
Wind 10 kt from the Southwest
Visibility 10 km or more
no clouds below 1500 m and no cumulonimbus
Temporary
from 15 at 12 UTC to 15 at 18 UTC
Wind 15 kt from the West/Southwest with gusts up to 25 kt
Visibility 10 km or more
Few clouds at a height of 3000 ft

TAF: OSDI 150500Z 1506/1612 22010KT CAVOK TEMPO 1512/1518 24015G25KT 9999 FEW030

Weather observations and forecasts of more than 4000 airports (METAR and TAF reports).

The available stations are represented by yellow and red dots on the map.

Hover mouse over dot to see the name of the station.

Then click to see weather observations and forecasts.

To change the map : click on the green buttons with a black cross to zoom in, on the green button with a dash to zoom out, or on the green arrows for adjacent maps.


METAR-TAF: